createdAt,value
2018-05-14T00:03:32.125Z,13.60
2018-05-14T00:07:25.289Z,13.60
2018-05-14T00:11:18.419Z,13.60
2018-05-14T00:15:11.573Z,13.60
2018-05-14T00:19:04.724Z,13.60
2018-05-14T00:22:58.692Z,13.70
2018-05-14T00:26:51.908Z,13.60
2018-05-14T00:30:45.049Z,13.60
2018-05-14T00:34:38.237Z,13.60
2018-05-14T00:38:31.720Z,13.60
2018-05-14T00:42:24.963Z,13.70
2018-05-14T00:46:18.909Z,13.70
2018-05-14T00:50:12.257Z,13.70
2018-05-14T00:54:05.453Z,13.70
2018-05-14T00:57:59.336Z,13.70
2018-05-14T01:01:53.832Z,13.80
2018-05-14T01:05:47.011Z,13.80
2018-05-14T01:09:40.236Z,13.80
2018-05-14T01:13:33.379Z,13.80
2018-05-14T01:17:26.746Z,13.80
2018-05-14T01:21:20.004Z,13.80
2018-05-14T01:25:14.147Z,13.80
2018-05-14T01:29:08.047Z,13.90
2018-05-14T01:33:01.238Z,13.80
2018-05-14T01:36:54.479Z,13.90
2018-05-14T01:40:47.730Z,13.80
2018-05-14T01:44:40.834Z,13.80
2018-05-14T01:48:34.035Z,13.80
2018-05-14T01:52:27.242Z,13.80
2018-05-14T01:56:20.892Z,13.80
2018-05-14T02:00:14.030Z,13.90
2018-05-14T02:04:07.242Z,13.90
2018-05-14T02:08:00.624Z,13.90
2018-05-14T02:11:54.971Z,13.80
2018-05-14T02:15:48.228Z,13.80
2018-05-14T02:19:41.480Z,13.80
2018-05-14T02:23:34.768Z,13.80
2018-05-14T02:27:27.983Z,13.80
2018-05-14T02:31:21.102Z,13.80
2018-05-14T02:35:14.254Z,13.80
2018-05-14T02:39:07.499Z,13.80
2018-05-14T02:43:00.644Z,13.80
2018-05-14T02:46:53.815Z,13.80
2018-05-14T02:50:47.032Z,13.80
2018-05-14T02:54:43.204Z,13.80
2018-05-14T02:58:36.397Z,13.90
2018-05-14T03:02:29.571Z,13.80
2018-05-14T03:06:22.836Z,13.90
2018-05-14T03:10:15.951Z,13.90
2018-05-14T03:14:09.625Z,13.90
2018-05-14T03:18:02.828Z,13.90
2018-05-14T03:21:56.546Z,13.90
2018-05-14T03:25:49.847Z,13.90
2018-05-14T03:29:43.117Z,13.90
2018-05-14T03:33:37.012Z,13.90
2018-05-14T03:37:30.158Z,14.00
2018-05-14T03:41:23.327Z,13.90
2018-05-14T03:45:16.546Z,14.00
2018-05-14T03:49:09.805Z,13.90
2018-05-14T03:53:03.003Z,13.90
2018-05-14T03:56:56.349Z,13.90
2018-05-14T04:01:01.442Z,13.90
2018-05-14T04:05:06.462Z,13.90
2018-05-14T04:08:59.643Z,13.90
2018-05-14T04:12:53.614Z,14.00
2018-05-14T04:16:46.739Z,14.00
2018-05-14T04:20:39.871Z,14.00
2018-05-14T04:24:33.032Z,14.00
2018-05-14T04:28:26.978Z,14.00
2018-05-14T04:32:20.430Z,14.00
2018-05-14T04:36:15.720Z,14.00
2018-05-14T04:40:08.943Z,14.10
2018-05-14T04:44:02.844Z,14.10
2018-05-14T04:47:57.190Z,14.20
2018-05-14T04:51:50.351Z,14.20
2018-05-14T04:55:43.569Z,14.20
2018-05-14T04:59:36.935Z,14.30
2018-05-14T05:03:30.864Z,14.40
2018-05-14T05:07:24.509Z,14.30
2018-05-14T05:11:17.875Z,14.40
2018-05-14T05:15:11.530Z,14.40
2018-05-14T05:19:04.884Z,14.50
2018-05-14T05:22:58.457Z,14.50
2018-05-14T05:26:53.397Z,14.60
2018-05-14T05:30:46.866Z,14.60
2018-05-14T05:34:40.256Z,14.70
2018-05-14T05:38:33.512Z,14.80
2018-05-14T05:42:28.559Z,14.90
2018-05-14T05:46:21.921Z,14.90
2018-05-14T05:50:15.239Z,15.00
2018-05-14T05:54:10.426Z,15.10
2018-05-14T05:58:04.000Z,15.20
2018-05-14T06:01:57.301Z,15.30
2018-05-14T06:05:49.864Z,15.40
2018-05-14T06:09:43.183Z,15.50
2018-05-14T06:13:36.439Z,15.60
2018-05-14T06:17:29.665Z,15.80
2018-05-14T06:21:22.943Z,16.10
2018-05-14T06:25:16.223Z,16.20
2018-05-14T06:29:09.490Z,16.40
2018-05-14T06:33:02.656Z,16.60
2018-05-14T06:36:56.731Z,16.60
2018-05-14T06:40:49.866Z,16.70
2018-05-14T06:44:43.959Z,16.60
2018-05-14T06:48:37.320Z,16.60
2018-05-14T06:52:31.731Z,17.00
2018-05-14T06:56:26.423Z,17.00
2018-05-14T07:00:19.738Z,17.20
2018-05-14T07:04:13.038Z,17.40
2018-05-14T07:08:06.274Z,17.70
2018-05-14T07:12:00.033Z,17.90
2018-05-14T07:15:53.549Z,18.20
2018-05-14T07:19:46.700Z,18.20
2018-05-14T07:23:39.961Z,18.30
2018-05-14T07:27:33.292Z,18.50
2018-05-14T07:31:26.617Z,18.80
2018-05-14T07:35:19.908Z,18.50
2018-05-14T07:39:13.199Z,18.40
2018-05-14T07:43:06.340Z,18.30
2018-05-14T07:47:01.157Z,18.80
2018-05-14T07:50:54.441Z,18.80
2018-05-14T07:54:47.771Z,18.80
2018-05-14T07:58:41.132Z,19.30
2018-05-14T08:02:34.342Z,19.40
2018-05-14T08:06:27.605Z,19.00
2018-05-14T08:10:20.824Z,19.10
2018-05-14T08:14:14.192Z,18.90
2018-05-14T08:18:09.385Z,18.40
2018-05-14T08:22:07.695Z,18.50
2018-05-14T08:26:00.902Z,18.80
2018-05-14T08:29:54.167Z,19.40
2018-05-14T08:33:47.397Z,19.50
2018-05-14T08:37:40.692Z,19.60
2018-05-14T08:41:34.247Z,19.50
2018-05-14T08:45:28.035Z,19.50
2018-05-14T08:49:21.285Z,19.50
2018-05-14T08:53:14.627Z,19.40
2018-05-14T08:57:08.661Z,19.50
2018-05-14T09:01:02.099Z,19.50
2018-05-14T09:04:56.561Z,19.20
2018-05-14T09:08:50.073Z,19.20
2018-05-14T09:12:44.600Z,19.40
2018-05-14T09:16:38.090Z,19.10
2018-05-14T09:20:31.272Z,19.20
2018-05-14T09:24:24.970Z,19.30
2018-05-14T09:28:18.293Z,19.50
2018-05-14T09:32:12.312Z,19.70
2018-05-14T09:36:05.533Z,19.70
2018-05-14T09:40:00.369Z,20.10
2018-05-14T09:43:53.711Z,20.10
2018-05-14T09:47:47.750Z,20.10
2018-05-14T09:51:41.030Z,20.00
2018-05-14T09:55:34.281Z,20.10
2018-05-14T09:59:28.378Z,20.20
2018-05-14T10:03:23.849Z,20.50
2018-05-14T10:07:16.891Z,20.50
2018-05-14T10:11:11.693Z,20.70
2018-05-14T10:15:07.923Z,20.80
2018-05-14T10:19:04.362Z,20.70
2018-05-14T10:22:57.728Z,20.90
2018-05-14T10:26:53.372Z,21.10
2018-05-14T10:30:47.767Z,21.10
2018-05-14T10:34:41.176Z,21.30
2018-05-14T10:38:34.689Z,21.40
2018-05-14T10:42:28.696Z,21.60
2018-05-14T10:46:23.794Z,21.80
2018-05-14T10:50:19.536Z,21.70
2018-05-14T10:54:15.044Z,21.60
2018-05-14T10:58:08.519Z,21.50
2018-05-14T11:06:01.963Z,21.90
2018-05-14T11:09:56.284Z,21.90
2018-05-14T11:17:50.469Z,22.30
2018-05-14T11:21:51.544Z,22.50
2018-05-14T11:25:48.418Z,22.60
2018-05-14T11:29:43.478Z,22.70
2018-05-14T11:33:37.493Z,22.70
2018-05-14T11:37:31.440Z,22.90
2018-05-14T11:41:24.720Z,22.90
2018-05-14T11:45:17.983Z,23.00
2018-05-14T11:49:11.266Z,23.00
2018-05-14T11:53:04.538Z,23.10
2018-05-14T11:56:57.789Z,23.10
2018-05-14T12:00:51.058Z,23.20
2018-05-14T12:04:45.252Z,23.30
2018-05-14T12:08:38.523Z,23.40
2018-05-14T12:12:33.993Z,23.60
2018-05-14T12:16:28.797Z,23.60
2018-05-14T12:20:22.603Z,23.60
2018-05-14T12:24:15.919Z,23.70
2018-05-14T12:28:09.208Z,23.70
2018-05-14T12:32:02.494Z,23.80
2018-05-14T12:35:56.531Z,24.00
2018-05-14T12:39:49.771Z,24.00
2018-05-14T12:43:42.973Z,23.90
2018-05-14T12:47:36.361Z,24.00
2018-05-14T12:51:30.416Z,24.20
2018-05-14T12:55:23.729Z,24.10
2018-05-14T12:59:17.853Z,24.40
2018-05-14T13:03:11.055Z,24.40
2018-05-14T13:07:04.477Z,24.50
2018-05-14T13:10:57.634Z,24.70
2018-05-14T13:14:50.882Z,24.80
2018-05-14T13:18:45.261Z,24.80
2018-05-14T13:22:38.780Z,24.90
2018-05-14T13:26:32.153Z,25.20
2018-05-14T13:30:25.423Z,25.10
2018-05-14T13:34:20.012Z,25.00
2018-05-14T13:38:13.959Z,25.00
2018-05-14T13:42:08.056Z,25.50
2018-05-14T13:46:01.460Z,25.50
2018-05-14T13:49:54.788Z,25.70
2018-05-14T13:53:48.124Z,25.50
2018-05-14T13:57:42.138Z,25.70
2018-05-14T14:01:35.452Z,25.70
2018-05-14T14:05:28.726Z,25.80
2018-05-14T14:09:23.158Z,26.00
2018-05-14T14:13:16.458Z,26.00
2018-05-14T14:17:10.165Z,26.00
2018-05-14T14:21:03.475Z,26.00
2018-05-14T14:24:57.583Z,26.20
2018-05-14T14:28:52.065Z,26.10
2018-05-14T14:36:39.894Z,26.40
2018-05-14T14:40:34.556Z,26.70
2018-05-14T14:44:28.188Z,26.40
2018-05-14T14:48:21.684Z,26.00
2018-05-14T14:52:14.798Z,26.00
2018-05-14T14:56:07.577Z,26.00
2018-05-14T15:00:01.096Z,26.30
2018-05-14T15:07:53.620Z,26.30
2018-05-14T15:11:47.297Z,26.30
2018-05-14T15:15:41.067Z,26.30
2018-05-14T15:19:34.714Z,26.30
2018-05-14T15:23:28.114Z,26.40
2018-05-14T15:27:27.649Z,26.60
2018-05-14T15:31:21.189Z,26.50
2018-05-14T15:35:16.120Z,26.40
2018-05-14T15:39:11.506Z,26.50
2018-05-14T15:43:05.074Z,27.00
2018-05-14T15:46:57.861Z,27.00
2018-05-14T15:50:50.704Z,27.00
2018-05-14T15:54:44.368Z,26.70
2018-05-14T15:58:37.155Z,26.30
2018-05-14T16:02:31.367Z,26.30
2018-05-14T16:06:24.954Z,26.30
2018-05-14T16:10:18.477Z,26.30
2018-05-14T16:14:12.061Z,26.40
2018-05-14T16:18:04.856Z,26.50
2018-05-14T16:22:06.093Z,26.30
2018-05-14T16:25:58.832Z,26.30
2018-05-14T16:29:52.515Z,26.20
2018-05-14T16:33:47.010Z,26.30
2018-05-14T16:37:41.110Z,26.40
2018-05-14T16:41:34.741Z,26.70
2018-05-14T16:45:35.059Z,26.60
2018-05-14T16:49:28.710Z,26.90
2018-05-14T16:53:22.025Z,27.00
2018-05-14T16:57:15.598Z,26.90
2018-05-14T17:01:08.431Z,26.70
2018-05-14T17:05:01.147Z,26.20
2018-05-14T17:08:53.852Z,25.90
2018-05-14T17:12:46.652Z,25.80
2018-05-14T17:16:39.465Z,25.60
2018-05-14T17:20:32.202Z,25.50
2018-05-14T17:24:24.956Z,25.60
2018-05-14T17:28:17.749Z,26.50
2018-05-14T17:32:10.393Z,26.80
2018-05-14T17:36:03.986Z,26.70
2018-05-14T17:39:56.814Z,26.30
2018-05-14T17:43:49.647Z,26.10
2018-05-14T17:47:43.281Z,26.00
2018-05-14T17:51:36.013Z,25.80
2018-05-14T17:55:28.794Z,25.60
2018-05-14T17:59:22.293Z,25.30
2018-05-14T18:03:15.451Z,25.30
2018-05-14T18:07:08.295Z,25.20
2018-05-14T18:11:02.031Z,25.00
2018-05-14T18:14:57.248Z,25.00
2018-05-14T18:18:50.761Z,25.00
2018-05-14T18:22:46.748Z,24.90
2018-05-14T18:26:45.422Z,24.80
2018-05-14T18:30:39.597Z,24.60
2018-05-14T18:34:39.321Z,24.50
2018-05-14T18:38:32.110Z,24.40
2018-05-14T18:42:24.841Z,24.20
2018-05-14T18:46:19.123Z,24.00
2018-05-14T18:50:12.551Z,24.00
2018-05-14T18:54:09.138Z,23.60
2018-05-14T18:58:03.034Z,23.60
2018-05-14T19:01:58.214Z,23.50
2018-05-14T19:05:51.849Z,23.20
2018-05-14T19:09:44.656Z,23.10
2018-05-14T19:13:38.661Z,22.90
2018-05-14T19:17:38.844Z,22.90
2018-05-14T19:21:32.008Z,22.80
2018-05-14T19:25:25.799Z,22.60
2018-05-14T19:29:24.371Z,22.50
2018-05-14T19:33:22.815Z,22.50
2018-05-14T19:37:16.788Z,22.40
2018-05-14T19:41:09.645Z,22.40
2018-05-14T19:47:48.962Z,22.20
2018-05-14T20:01:29.224Z,22.10
2018-05-14T20:05:22.730Z,21.80
2018-05-14T20:09:15.645Z,21.70
2018-05-14T20:13:09.336Z,21.30
2018-05-14T20:17:02.154Z,21.30
2018-05-14T20:20:55.006Z,21.30
2018-05-14T20:24:47.990Z,21.10
2018-05-14T20:28:42.365Z,21.00
2018-05-14T20:32:35.452Z,20.90
2018-05-14T20:36:28.648Z,20.70
2018-05-14T20:40:21.655Z,20.60
2018-05-14T20:44:15.430Z,20.50
2018-05-14T20:48:08.262Z,20.50
2018-05-14T20:52:01.566Z,20.40
2018-05-14T20:55:54.516Z,20.40
2018-05-14T20:59:48.535Z,20.30
2018-05-14T21:03:41.385Z,20.20
2018-05-14T21:07:34.331Z,20.30
2018-05-14T21:11:28.044Z,20.50
2018-05-14T21:15:21.073Z,20.50
2018-05-14T21:19:14.124Z,20.70
2018-05-14T21:23:07.202Z,20.70
2018-05-14T21:27:00.162Z,20.70
2018-05-14T21:30:54.036Z,20.70
2018-05-14T21:34:46.962Z,20.60
2018-05-14T21:38:41.085Z,20.60
2018-05-14T21:42:34.452Z,20.60
2018-05-14T21:46:28.467Z,20.60
2018-05-14T21:50:21.436Z,20.60
2018-05-14T21:54:14.399Z,20.50
2018-05-14T21:58:11.073Z,20.50
2018-05-14T22:02:04.649Z,20.40
2018-05-14T22:05:58.654Z,20.30
2018-05-14T22:09:51.724Z,20.30
2018-05-14T22:13:44.744Z,20.30
2018-05-14T22:17:37.879Z,20.20
2018-05-14T22:21:30.776Z,20.10
2018-05-14T22:25:23.809Z,20.00
2018-05-14T22:29:16.878Z,19.70
2018-05-14T22:33:09.802Z,19.50
2018-05-14T22:37:02.809Z,19.40
2018-05-14T22:40:58.647Z,19.40
2018-05-14T22:44:52.096Z,19.40
2018-05-14T22:48:45.098Z,19.20
2018-05-14T22:52:37.952Z,19.00
2018-05-14T22:56:31.595Z,19.00
2018-05-14T23:00:24.579Z,18.90
2018-05-14T23:04:17.504Z,19.00
2018-05-14T23:08:11.204Z,18.60
2018-05-14T23:12:04.129Z,18.60
2018-05-14T23:15:57.924Z,18.60
2018-05-14T23:19:51.357Z,18.60
2018-05-14T23:23:44.421Z,18.50
2018-05-14T23:27:37.403Z,18.30
2018-05-14T23:31:30.334Z,18.10
2018-05-14T23:35:23.641Z,18.10
2018-05-14T23:39:16.588Z,18.10
2018-05-14T23:43:11.003Z,18.20
2018-05-14T23:47:03.896Z,18.10
2018-05-14T23:50:56.767Z,18.10
2018-05-14T23:54:49.759Z,18.10
2018-05-14T23:58:42.623Z,18.00
